Terminal Aerodrome Forecast
Issued by NWS Twin Cities, MN

Home | Current Version | Previous Version | Graphics & Text | Print | Product List | Glossary On
Versions: 1 2 3 4 5 6 7 8 9 10 11 12 13 14 15 16 17 18 19 20 21 22 23 24 25 26
000
FTUS43 KMPX 221100
TAFMSP
TAF
KMSP 221120Z 2212/2318 36007KT P6SM SKC
     FM222300 06007KT P6SM SCT250
     FM230300 11007KT P6SM BKN200
     FM231200 12009KT P6SM BKN070 OVC100
     FM231500 12012KT P6SM VCSH SCT030 OVC060=

USA.gov is the U.S. government's official web portal to all federal, state and local government web resources and services.